sensor_id;sensor_type;location;lat;lon;timestamp;P1;durP1;ratioP1;P2;durP2;ratioP2
40116;SDS011;25829;50.228;18.936;2023-02-28T00:00:26;6.53;;;3.67;;
40116;SDS011;25829;50.228;18.936;2023-02-28T00:03:27;6.03;;;4.00;;
40116;SDS011;25829;50.228;18.936;2023-02-28T00:06:28;5.97;;;3.90;;
40116;SDS011;25829;50.228;18.936;2023-02-28T00:09:29;4.57;;;3.23;;
40116;SDS011;25829;50.228;18.936;2023-02-28T00:12:29;4.13;;;3.50;;
40116;SDS011;25829;50.228;18.936;2023-02-28T00:15:30;6.27;;;3.50;;
40116;SDS011;25829;50.228;18.936;2023-02-28T00:18:32;4.50;;;3.27;;
40116;SDS011;25829;50.228;18.936;2023-02-28T00:21:33;5.33;;;3.33;;
40116;SDS011;25829;50.228;18.936;2023-02-28T00:24:34;7.73;;;3.47;;
40116;SDS011;25829;50.228;18.936;2023-02-28T00:27:41;4.90;;;3.77;;
40116;SDS011;25829;50.228;18.936;2023-02-28T00:30:45;6.00;;;3.70;;
40116;SDS011;25829;50.228;18.936;2023-02-28T00:33:49;7.47;;;4.20;;
40116;SDS011;25829;50.228;18.936;2023-02-28T00:36:51;6.07;;;4.30;;
40116;SDS011;25829;50.228;18.936;2023-02-28T00:39:52;7.37;;;4.57;;
40116;SDS011;25829;50.228;18.936;2023-02-28T00:42:53;10.73;;;5.23;;
40116;SDS011;25829;50.228;18.936;2023-02-28T00:45:54;9.50;;;4.70;;
40116;SDS011;25829;50.228;18.936;2023-02-28T01:06:49;13.57;;;6.17;;
40116;SDS011;25829;50.228;18.936;2023-02-28T01:09:50;11.77;;;7.03;;
40116;SDS011;25829;50.228;18.936;2023-02-28T01:12:51;12.50;;;6.93;;
40116;SDS011;25829;50.228;18.936;2023-02-28T01:15:53;11.50;;;6.57;;
40116;SDS011;25829;50.228;18.936;2023-02-28T01:18:56;12.40;;;6.30;;
40116;SDS011;25829;50.228;18.936;2023-02-28T01:21:59;11.63;;;6.00;;
40116;SDS011;25829;50.228;18.936;2023-02-28T01:25:01;9.53;;;5.80;;
40116;SDS011;25829;50.228;18.936;2023-02-28T01:28:02;11.33;;;5.53;;
40116;SDS011;25829;50.228;18.936;2023-02-28T01:31:04;11.67;;;5.87;;
40116;SDS011;25829;50.228;18.936;2023-02-28T01:50:49;13.70;;;6.53;;
40116;SDS011;25829;50.228;18.936;2023-02-28T01:54:01;12.10;;;7.20;;
40116;SDS011;25829;50.228;18.936;2023-02-28T02:00:37;12.50;;;7.23;;
40116;SDS011;25829;50.228;18.936;2023-02-28T02:03:40;14.60;;;7.80;;
40116;SDS011;25829;50.228;18.936;2023-02-28T02:06:42;13.20;;;7.80;;
40116;SDS011;25829;50.228;18.936;2023-02-28T02:09:46;16.03;;;7.37;;
40116;SDS011;25829;50.228;18.936;2023-02-28T02:36:27;13.43;;;8.20;;
40116;SDS011;25829;50.228;18.936;2023-02-28T02:39:54;14.97;;;8.47;;
40116;SDS011;25829;50.228;18.936;2023-02-28T02:47:09;15.60;;;8.60;;
40116;SDS011;25829;50.228;18.936;2023-02-28T02:50:19;14.27;;;8.23;;
40116;SDS011;25829;50.228;18.936;2023-02-28T02:53:32;14.57;;;8.50;;
40116;SDS011;25829;50.228;18.936;2023-02-28T02:56:40;14.83;;;8.40;;
40116;SDS011;25829;50.228;18.936;2023-02-28T02:59:44;19.93;;;8.93;;
40116;SDS011;25829;50.228;18.936;2023-02-28T03:02:48;12.07;;;8.43;;
40116;SDS011;25829;50.228;18.936;2023-02-28T03:05:52;14.67;;;8.47;;
40116;SDS011;25829;50.228;18.936;2023-02-28T03:08:55;16.10;;;9.50;;
40116;SDS011;25829;50.228;18.936;2023-02-28T03:11:57;17.23;;;8.83;;
40116;SDS011;25829;50.228;18.936;2023-02-28T03:18:50;17.17;;;9.57;;
40116;SDS011;25829;50.228;18.936;2023-02-28T03:21:56;14.83;;;8.90;;
40116;SDS011;25829;50.228;18.936;2023-02-28T03:28:07;14.37;;;8.60;;
40116;SDS011;25829;50.228;18.936;2023-02-28T03:31:30;18.30;;;10.37;;
40116;SDS011;25829;50.228;18.936;2023-02-28T03:34:53;16.67;;;9.53;;
40116;SDS011;25829;50.228;18.936;2023-02-28T03:38:29;16.23;;;9.10;;
40116;SDS011;25829;50.228;18.936;2023-02-28T03:41:37;24.70;;;10.47;;
40116;SDS011;25829;50.228;18.936;2023-02-28T03:44:43;15.07;;;9.50;;
40116;SDS011;25829;50.228;18.936;2023-02-28T03:47:57;16.87;;;9.03;;
40116;SDS011;25829;50.228;18.936;2023-02-28T03:51:13;15.13;;;8.60;;
40116;SDS011;25829;50.228;18.936;2023-02-28T03:54:20;17.57;;;9.00;;
40116;SDS011;25829;50.228;18.936;2023-02-28T03:57:27;18.17;;;9.83;;
40116;SDS011;25829;50.228;18.936;2023-02-28T04:00:58;17.70;;;9.33;;
40116;SDS011;25829;50.228;18.936;2023-02-28T04:04:12;14.70;;;8.23;;
40116;SDS011;25829;50.228;18.936;2023-02-28T04:20:44;14.03;;;8.80;;
40116;SDS011;25829;50.228;18.936;2023-02-28T04:23:45;16.00;;;8.53;;
40116;SDS011;25829;50.228;18.936;2023-02-28T04:26:46;14.60;;;8.30;;
40116;SDS011;25829;50.228;18.936;2023-02-28T04:29:48;13.97;;;8.47;;
40116;SDS011;25829;50.228;18.936;2023-02-28T04:32:52;17.60;;;8.53;;
40116;SDS011;25829;50.228;18.936;2023-02-28T04:39:15;18.07;;;9.27;;
40116;SDS011;25829;50.228;18.936;2023-02-28T04:42:21;15.20;;;8.70;;
40116;SDS011;25829;50.228;18.936;2023-02-28T04:45:25;15.07;;;9.20;;
40116;SDS011;25829;50.228;18.936;2023-02-28T04:48:27;15.23;;;9.20;;
40116;SDS011;25829;50.228;18.936;2023-02-28T04:51:29;16.90;;;10.83;;
40116;SDS011;25829;50.228;18.936;2023-02-28T04:54:30;17.33;;;10.03;;
40116;SDS011;25829;50.228;18.936;2023-02-28T04:57:31;15.17;;;10.97;;
40116;SDS011;25829;50.228;18.936;2023-02-28T05:00:32;16.77;;;9.43;;
40116;SDS011;25829;50.228;18.936;2023-02-28T05:03:33;17.17;;;9.87;;
40116;SDS011;25829;50.228;18.936;2023-02-28T05:06:34;17.73;;;10.33;;
40116;SDS011;25829;50.228;18.936;2023-02-28T05:09:38;15.60;;;9.97;;
40116;SDS011;25829;50.228;18.936;2023-02-28T05:12:41;14.10;;;8.60;;
40116;SDS011;25829;50.228;18.936;2023-02-28T05:15:42;16.27;;;9.47;;
40116;SDS011;25829;50.228;18.936;2023-02-28T05:18:46;14.40;;;9.30;;
40116;SDS011;25829;50.228;18.936;2023-02-28T05:21:49;18.20;;;9.87;;
40116;SDS011;25829;50.228;18.936;2023-02-28T05:24:52;21.07;;;10.30;;
40116;SDS011;25829;50.228;18.936;2023-02-28T05:27:53;16.43;;;8.80;;
40116;SDS011;25829;50.228;18.936;2023-02-28T05:30:56;16.53;;;10.03;;
40116;SDS011;25829;50.228;18.936;2023-02-28T05:33:57;16.77;;;8.70;;
40116;SDS011;25829;50.228;18.936;2023-02-28T05:36:58;14.07;;;9.73;;
40116;SDS011;25829;50.228;18.936;2023-02-28T05:40:02;16.70;;;8.57;;
40116;SDS011;25829;50.228;18.936;2023-02-28T05:43:07;15.90;;;9.43;;
40116;SDS011;25829;50.228;18.936;2023-02-28T05:46:16;14.67;;;9.70;;
40116;SDS011;25829;50.228;18.936;2023-02-28T05:49:17;15.73;;;10.03;;
40116;SDS011;25829;50.228;18.936;2023-02-28T05:52:21;17.73;;;9.73;;
40116;SDS011;25829;50.228;18.936;2023-02-28T05:55:22;16.87;;;10.17;;
40116;SDS011;25829;50.228;18.936;2023-02-28T05:58:22;17.33;;;10.93;;
40116;SDS011;25829;50.228;18.936;2023-02-28T06:04:36;18.17;;;10.57;;
40116;SDS011;25829;50.228;18.936;2023-02-28T06:07:37;19.37;;;9.27;;
40116;SDS011;25829;50.228;18.936;2023-02-28T06:10:38;16.87;;;9.13;;
40116;SDS011;25829;50.228;18.936;2023-02-28T06:13:39;18.07;;;10.20;;
40116;SDS011;25829;50.228;18.936;2023-02-28T06:16:39;15.93;;;9.83;;
40116;SDS011;25829;50.228;18.936;2023-02-28T06:26:48;23.27;;;12.50;;
40116;SDS011;25829;50.228;18.936;2023-02-28T06:29:54;22.33;;;12.47;;
40116;SDS011;25829;50.228;18.936;2023-02-28T06:32:58;24.33;;;13.53;;
40116;SDS011;25829;50.228;18.936;2023-02-28T06:36:14;19.40;;;11.63;;
40116;SDS011;25829;50.228;18.936;2023-02-28T06:39:16;21.90;;;12.27;;
40116;SDS011;25829;50.228;18.936;2023-02-28T06:42:17;27.13;;;13.33;;
40116;SDS011;25829;50.228;18.936;2023-02-28T06:45:18;20.97;;;12.07;;
40116;SDS011;25829;50.228;18.936;2023-02-28T06:48:19;23.90;;;11.63;;
40116;SDS011;25829;50.228;18.936;2023-02-28T06:51:20;17.70;;;10.87;;
40116;SDS011;25829;50.228;18.936;2023-02-28T06:54:31;19.53;;;11.17;;
40116;SDS011;25829;50.228;18.936;2023-02-28T06:57:32;26.37;;;12.80;;
40116;SDS011;25829;50.228;18.936;2023-02-28T07:00:35;21.23;;;11.80;;
40116;SDS011;25829;50.228;18.936;2023-02-28T07:03:36;24.90;;;11.73;;
40116;SDS011;25829;50.228;18.936;2023-02-28T07:06:37;19.40;;;11.40;;
40116;SDS011;25829;50.228;18.936;2023-02-28T07:09:37;23.80;;;14.10;;
40116;SDS011;25829;50.228;18.936;2023-02-28T07:12:41;25.47;;;13.57;;
40116;SDS011;25829;50.228;18.936;2023-02-28T07:15:43;22.53;;;12.83;;
40116;SDS011;25829;50.228;18.936;2023-02-28T07:18:44;19.10;;;11.73;;
40116;SDS011;25829;50.228;18.936;2023-02-28T07:21:45;27.63;;;13.33;;
40116;SDS011;25829;50.228;18.936;2023-02-28T07:24:46;21.70;;;13.80;;
40116;SDS011;25829;50.228;18.936;2023-02-28T07:27:47;22.27;;;12.87;;
40116;SDS011;25829;50.228;18.936;2023-02-28T07:30:48;23.40;;;12.57;;
40116;SDS011;25829;50.228;18.936;2023-02-28T07:33:48;23.83;;;13.60;;
40116;SDS011;25829;50.228;18.936;2023-02-28T07:36:52;22.77;;;13.53;;
40116;SDS011;25829;50.228;18.936;2023-02-28T07:39:54;20.50;;;12.03;;
40116;SDS011;25829;50.228;18.936;2023-02-28T07:42:55;19.90;;;12.50;;
40116;SDS011;25829;50.228;18.936;2023-02-28T07:45:56;23.47;;;12.23;;
40116;SDS011;25829;50.228;18.936;2023-02-28T07:49:21;18.07;;;11.63;;
40116;SDS011;25829;50.228;18.936;2023-02-28T07:52:22;20.60;;;11.60;;
40116;SDS011;25829;50.228;18.936;2023-02-28T07:55:24;20.07;;;11.07;;
40116;SDS011;25829;50.228;18.936;2023-02-28T07:58:25;18.57;;;11.73;;
40116;SDS011;25829;50.228;18.936;2023-02-28T08:01:27;21.67;;;11.30;;
40116;SDS011;25829;50.228;18.936;2023-02-28T08:04:28;14.43;;;9.87;;
40116;SDS011;25829;50.228;18.936;2023-02-28T08:07:32;15.70;;;10.00;;
40116;SDS011;25829;50.228;18.936;2023-02-28T08:10:33;22.30;;;10.50;;
40116;SDS011;25829;50.228;18.936;2023-02-28T08:13:34;17.97;;;9.97;;
40116;SDS011;25829;50.228;18.936;2023-02-28T08:16:38;16.93;;;9.63;;
40116;SDS011;25829;50.228;18.936;2023-02-28T08:19:39;18.87;;;10.53;;
40116;SDS011;25829;50.228;18.936;2023-02-28T08:22:39;15.50;;;9.57;;
40116;SDS011;25829;50.228;18.936;2023-02-28T08:25:40;16.70;;;8.70;;
40116;SDS011;25829;50.228;18.936;2023-02-28T08:28:41;15.87;;;9.80;;
40116;SDS011;25829;50.228;18.936;2023-02-28T08:31:42;17.40;;;10.17;;
40116;SDS011;25829;50.228;18.936;2023-02-28T08:34:43;20.73;;;10.10;;
40116;SDS011;25829;50.228;18.936;2023-02-28T08:37:47;12.37;;;7.87;;
40116;SDS011;25829;50.228;18.936;2023-02-28T08:41:04;17.90;;;10.43;;
40116;SDS011;25829;50.228;18.936;2023-02-28T08:44:10;18.87;;;8.90;;
40116;SDS011;25829;50.228;18.936;2023-02-28T08:47:11;13.80;;;8.60;;
40116;SDS011;25829;50.228;18.936;2023-02-28T08:50:12;19.93;;;8.40;;
40116;SDS011;25829;50.228;18.936;2023-02-28T08:53:15;12.90;;;7.33;;
40116;SDS011;25829;50.228;18.936;2023-02-28T08:56:16;13.70;;;7.87;;
40116;SDS011;25829;50.228;18.936;2023-02-28T08:59:22;11.03;;;6.93;;
40116;SDS011;25829;50.228;18.936;2023-02-28T09:02:26;12.47;;;7.47;;
40116;SDS011;25829;50.228;18.936;2023-02-28T09:09:03;11.17;;;7.10;;
40116;SDS011;25829;50.228;18.936;2023-02-28T09:12:08;12.07;;;6.87;;
40116;SDS011;25829;50.228;18.936;2023-02-28T09:15:21;16.37;;;9.27;;
40116;SDS011;25829;50.228;18.936;2023-02-28T09:18:25;11.20;;;7.43;;
40116;SDS011;25829;50.228;18.936;2023-02-28T09:21:26;9.57;;;6.40;;
40116;SDS011;25829;50.228;18.936;2023-02-28T09:24:28;11.60;;;6.67;;
40116;SDS011;25829;50.228;18.936;2023-02-28T09:27:28;10.20;;;6.17;;
40116;SDS011;25829;50.228;18.936;2023-02-28T09:30:30;9.00;;;6.37;;
40116;SDS011;25829;50.228;18.936;2023-02-28T09:33:32;9.07;;;5.77;;
40116;SDS011;25829;50.228;18.936;2023-02-28T09:36:34;11.20;;;6.30;;
40116;SDS011;25829;50.228;18.936;2023-02-28T09:39:37;10.43;;;6.13;;
40116;SDS011;25829;50.228;18.936;2023-02-28T09:42:38;8.27;;;6.40;;
40116;SDS011;25829;50.228;18.936;2023-02-28T09:45:40;8.43;;;5.73;;
40116;SDS011;25829;50.228;18.936;2023-02-28T09:48:44;8.67;;;5.93;;
40116;SDS011;25829;50.228;18.936;2023-02-28T09:52:00;10.90;;;7.53;;
40116;SDS011;25829;50.228;18.936;2023-02-28T09:55:20;14.17;;;7.60;;
40116;SDS011;25829;50.228;18.936;2023-02-28T09:58:31;10.87;;;7.37;;
40116;SDS011;25829;50.228;18.936;2023-02-28T10:04:44;12.97;;;8.03;;
40116;SDS011;25829;50.228;18.936;2023-02-28T10:11:13;12.10;;;8.90;;
40116;SDS011;25829;50.228;18.936;2023-02-28T10:17:22;14.83;;;9.57;;
40116;SDS011;25829;50.228;18.936;2023-02-28T10:20:27;12.13;;;7.53;;
40116;SDS011;25829;50.228;18.936;2023-02-28T10:23:32;16.57;;;7.57;;
40116;SDS011;25829;50.228;18.936;2023-02-28T10:26:35;10.93;;;7.40;;
40116;SDS011;25829;50.228;18.936;2023-02-28T10:29:43;13.73;;;7.97;;
40116;SDS011;25829;50.228;18.936;2023-02-28T10:32:47;11.20;;;7.40;;
40116;SDS011;25829;50.228;18.936;2023-02-28T10:35:51;9.73;;;7.27;;
40116;SDS011;25829;50.228;18.936;2023-02-28T10:38:52;16.13;;;7.97;;
40116;SDS011;25829;50.228;18.936;2023-02-28T10:41:55;12.13;;;8.03;;
40116;SDS011;25829;50.228;18.936;2023-02-28T10:45:15;13.67;;;7.83;;
40116;SDS011;25829;50.228;18.936;2023-02-28T10:51:18;11.40;;;7.00;;
40116;SDS011;25829;50.228;18.936;2023-02-28T10:54:22;13.80;;;7.93;;
40116;SDS011;25829;50.228;18.936;2023-02-28T10:57:25;9.27;;;7.33;;
40116;SDS011;25829;50.228;18.936;2023-02-28T11:00:25;13.50;;;9.07;;
40116;SDS011;25829;50.228;18.936;2023-02-28T11:03:37;9.90;;;7.93;;
40116;SDS011;25829;50.228;18.936;2023-02-28T11:06:38;14.10;;;7.77;;
40116;SDS011;25829;50.228;18.936;2023-02-28T11:09:39;16.50;;;8.13;;
40116;SDS011;25829;50.228;18.936;2023-02-28T11:12:46;12.60;;;8.07;;
40116;SDS011;25829;50.228;18.936;2023-02-28T11:15:54;11.00;;;7.80;;
40116;SDS011;25829;50.228;18.936;2023-02-28T11:18:57;12.20;;;7.90;;
40116;SDS011;25829;50.228;18.936;2023-02-28T11:21:59;12.30;;;8.03;;
40116;SDS011;25829;50.228;18.936;2023-02-28T11:25:15;11.83;;;8.40;;
40116;SDS011;25829;50.228;18.936;2023-02-28T11:28:34;13.00;;;8.13;;
40116;SDS011;25829;50.228;18.936;2023-02-28T11:31:37;11.43;;;8.43;;
40116;SDS011;25829;50.228;18.936;2023-02-28T11:34:38;13.50;;;9.30;;
40116;SDS011;25829;50.228;18.936;2023-02-28T11:37:41;15.13;;;9.23;;
40116;SDS011;25829;50.228;18.936;2023-02-28T11:47:30;14.43;;;10.03;;
40116;SDS011;25829;50.228;18.936;2023-02-28T11:54:18;11.93;;;8.60;;
40116;SDS011;25829;50.228;18.936;2023-02-28T11:57:33;14.60;;;8.77;;
40116;SDS011;25829;50.228;18.936;2023-02-28T12:28:03;11.80;;;8.90;;
40116;SDS011;25829;50.228;18.936;2023-02-28T12:31:19;16.10;;;9.77;;
40116;SDS011;25829;50.228;18.936;2023-02-28T12:34:28;14.60;;;9.33;;
40116;SDS011;25829;50.228;18.936;2023-02-28T12:37:51;13.47;;;9.63;;
40116;SDS011;25829;50.228;18.936;2023-02-28T12:41:02;13.23;;;9.47;;
40116;SDS011;25829;50.228;18.936;2023-02-28T12:44:26;15.27;;;9.40;;
40116;SDS011;25829;50.228;18.936;2023-02-28T12:47:35;17.03;;;9.40;;
40116;SDS011;25829;50.228;18.936;2023-02-28T12:50:38;17.27;;;10.60;;
40116;SDS011;25829;50.228;18.936;2023-02-28T12:53:48;16.13;;;10.67;;
40116;SDS011;25829;50.228;18.936;2023-02-28T13:00:25;16.37;;;9.53;;
40116;SDS011;25829;50.228;18.936;2023-02-28T13:10:14;14.23;;;10.27;;
40116;SDS011;25829;50.228;18.936;2023-02-28T13:13:18;18.90;;;11.17;;
40116;SDS011;25829;50.228;18.936;2023-02-28T13:16:47;18.87;;;10.97;;
40116;SDS011;25829;50.228;18.936;2023-02-28T13:22:55;17.17;;;11.30;;
40116;SDS011;25829;50.228;18.936;2023-02-28T13:25:58;14.43;;;9.97;;
40116;SDS011;25829;50.228;18.936;2023-02-28T13:29:04;16.77;;;10.47;;
40116;SDS011;25829;50.228;18.936;2023-02-28T13:32:28;16.47;;;9.87;;
40116;SDS011;25829;50.228;18.936;2023-02-28T13:35:37;13.17;;;8.90;;
40116;SDS011;25829;50.228;18.936;2023-02-28T13:38:47;14.97;;;9.17;;
40116;SDS011;25829;50.228;18.936;2023-02-28T13:41:49;20.90;;;9.47;;
40116;SDS011;25829;50.228;18.936;2023-02-28T13:48:15;13.60;;;9.47;;
40116;SDS011;25829;50.228;18.936;2023-02-28T14:05:22;17.40;;;10.37;;
40116;SDS011;25829;50.228;18.936;2023-02-28T14:33:31;18.00;;;10.70;;
40116;SDS011;25829;50.228;18.936;2023-02-28T14:37:09;22.33;;;10.50;;
40116;SDS011;25829;50.228;18.936;2023-02-28T14:40:32;19.10;;;11.17;;
40116;SDS011;25829;50.228;18.936;2023-02-28T14:43:34;20.30;;;11.07;;
40116;SDS011;25829;50.228;18.936;2023-02-28T14:46:38;18.77;;;12.00;;
40116;SDS011;25829;50.228;18.936;2023-02-28T14:49:44;19.87;;;11.67;;
40116;SDS011;25829;50.228;18.936;2023-02-28T14:52:48;19.27;;;12.13;;
40116;SDS011;25829;50.228;18.936;2023-02-28T14:55:53;15.47;;;10.73;;
40116;SDS011;25829;50.228;18.936;2023-02-28T14:58:54;18.63;;;11.60;;
40116;SDS011;25829;50.228;18.936;2023-02-28T15:05:31;22.37;;;12.90;;
40116;SDS011;25829;50.228;18.936;2023-02-28T15:08:33;24.57;;;13.33;;
40116;SDS011;25829;50.228;18.936;2023-02-28T15:11:36;23.90;;;13.23;;
40116;SDS011;25829;50.228;18.936;2023-02-28T15:14:39;21.90;;;12.90;;
40116;SDS011;25829;50.228;18.936;2023-02-28T15:17:52;19.93;;;13.63;;
40116;SDS011;25829;50.228;18.936;2023-02-28T15:21:01;22.23;;;12.97;;
40116;SDS011;25829;50.228;18.936;2023-02-28T15:24:45;24.63;;;12.63;;
40116;SDS011;25829;50.228;18.936;2023-02-28T15:27:53;19.93;;;11.70;;
40116;SDS011;25829;50.228;18.936;2023-02-28T15:31:00;18.93;;;12.07;;
40116;SDS011;25829;50.228;18.936;2023-02-28T15:34:04;19.00;;;12.77;;
40116;SDS011;25829;50.228;18.936;2023-02-28T15:41:20;18.33;;;11.90;;
40116;SDS011;25829;50.228;18.936;2023-02-28T15:47:33;22.00;;;11.43;;
40116;SDS011;25829;50.228;18.936;2023-02-28T15:50:34;17.30;;;10.53;;
40116;SDS011;25829;50.228;18.936;2023-02-28T15:53:36;15.53;;;10.23;;
40116;SDS011;25829;50.228;18.936;2023-02-28T15:56:51;15.67;;;9.83;;
40116;SDS011;25829;50.228;18.936;2023-02-28T15:59:55;16.83;;;10.80;;
40116;SDS011;25829;50.228;18.936;2023-02-28T16:03:27;14.37;;;10.10;;
40116;SDS011;25829;50.228;18.936;2023-02-28T16:10:00;16.50;;;10.57;;
40116;SDS011;25829;50.228;18.936;2023-02-28T16:13:01;17.10;;;10.13;;
40116;SDS011;25829;50.228;18.936;2023-02-28T16:16:02;18.03;;;10.20;;
40116;SDS011;25829;50.228;18.936;2023-02-28T16:19:04;15.63;;;10.70;;
40116;SDS011;25829;50.228;18.936;2023-02-28T16:22:04;17.60;;;10.63;;
40116;SDS011;25829;50.228;18.936;2023-02-28T16:25:05;13.57;;;9.03;;
40116;SDS011;25829;50.228;18.936;2023-02-28T16:28:09;18.20;;;11.03;;
40116;SDS011;25829;50.228;18.936;2023-02-28T16:31:21;21.13;;;10.57;;
40116;SDS011;25829;50.228;18.936;2023-02-28T16:34:22;15.10;;;10.20;;
40116;SDS011;25829;50.228;18.936;2023-02-28T16:37:23;16.23;;;10.50;;
40116;SDS011;25829;50.228;18.936;2023-02-28T16:40:25;15.73;;;9.80;;
40116;SDS011;25829;50.228;18.936;2023-02-28T16:43:29;14.87;;;10.93;;
40116;SDS011;25829;50.228;18.936;2023-02-28T16:46:31;24.47;;;11.30;;
40116;SDS011;25829;50.228;18.936;2023-02-28T16:49:34;20.53;;;13.40;;
40116;SDS011;25829;50.228;18.936;2023-02-28T16:52:35;19.80;;;13.07;;
40116;SDS011;25829;50.228;18.936;2023-02-28T16:55:35;19.70;;;12.93;;
40116;SDS011;25829;50.228;18.936;2023-02-28T16:58:39;20.07;;;14.23;;
40116;SDS011;25829;50.228;18.936;2023-02-28T17:01:40;26.73;;;13.53;;
40116;SDS011;25829;50.228;18.936;2023-02-28T17:04:41;24.27;;;15.83;;
40116;SDS011;25829;50.228;18.936;2023-02-28T17:07:42;25.37;;;15.90;;
40116;SDS011;25829;50.228;18.936;2023-02-28T17:10:43;31.37;;;16.63;;
40116;SDS011;25829;50.228;18.936;2023-02-28T17:13:44;25.27;;;15.53;;
40116;SDS011;25829;50.228;18.936;2023-02-28T17:16:45;25.23;;;14.17;;
40116;SDS011;25829;50.228;18.936;2023-02-28T17:19:47;25.03;;;14.70;;
40116;SDS011;25829;50.228;18.936;2023-02-28T17:22:51;20.90;;;11.80;;
40116;SDS011;25829;50.228;18.936;2023-02-28T17:29:19;26.07;;;13.47;;
40116;SDS011;25829;50.228;18.936;2023-02-28T17:32:21;23.40;;;14.33;;
40116;SDS011;25829;50.228;18.936;2023-02-28T17:35:22;25.57;;;14.53;;
40116;SDS011;25829;50.228;18.936;2023-02-28T17:38:23;25.80;;;16.23;;
40116;SDS011;25829;50.228;18.936;2023-02-28T17:41:24;27.00;;;16.53;;
40116;SDS011;25829;50.228;18.936;2023-02-28T17:44:26;25.80;;;16.90;;
40116;SDS011;25829;50.228;18.936;2023-02-28T17:47:27;22.33;;;16.17;;
40116;SDS011;25829;50.228;18.936;2023-02-28T17:50:28;26.60;;;16.33;;
40116;SDS011;25829;50.228;18.936;2023-02-28T17:53:28;26.33;;;16.00;;
40116;SDS011;25829;50.228;18.936;2023-02-28T17:56:29;25.83;;;16.60;;
40116;SDS011;25829;50.228;18.936;2023-02-28T17:59:30;26.93;;;17.00;;
40116;SDS011;25829;50.228;18.936;2023-02-28T18:02:33;27.43;;;16.87;;
40116;SDS011;25829;50.228;18.936;2023-02-28T18:05:34;27.57;;;17.17;;
40116;SDS011;25829;50.228;18.936;2023-02-28T18:08:36;29.60;;;17.67;;
40116;SDS011;25829;50.228;18.936;2023-02-28T18:11:37;31.27;;;17.57;;
40116;SDS011;25829;50.228;18.936;2023-02-28T18:14:48;27.47;;;18.00;;
40116;SDS011;25829;50.228;18.936;2023-02-28T18:17:49;28.73;;;17.63;;
40116;SDS011;25829;50.228;18.936;2023-02-28T18:20:50;31.80;;;18.17;;
40116;SDS011;25829;50.228;18.936;2023-02-28T18:23:55;31.83;;;19.20;;
40116;SDS011;25829;50.228;18.936;2023-02-28T18:27:00;35.77;;;20.17;;
40116;SDS011;25829;50.228;18.936;2023-02-28T18:33:36;40.97;;;21.83;;
40116;SDS011;25829;50.228;18.936;2023-02-28T18:37:09;45.77;;;24.80;;
40116;SDS011;25829;50.228;18.936;2023-02-28T18:40:11;55.80;;;28.03;;
40116;SDS011;25829;50.228;18.936;2023-02-28T18:43:14;42.37;;;22.27;;
40116;SDS011;25829;50.228;18.936;2023-02-28T18:46:15;37.40;;;20.67;;
40116;SDS011;25829;50.228;18.936;2023-02-28T18:49:17;39.03;;;21.13;;
40116;SDS011;25829;50.228;18.936;2023-02-28T18:52:19;37.70;;;22.20;;
40116;SDS011;25829;50.228;18.936;2023-02-28T18:55:19;42.87;;;23.30;;
40116;SDS011;25829;50.228;18.936;2023-02-28T18:58:22;43.47;;;24.20;;
40116;SDS011;25829;50.228;18.936;2023-02-28T19:01:25;49.40;;;26.93;;
40116;SDS011;25829;50.228;18.936;2023-02-28T19:04:30;49.93;;;29.87;;
40116;SDS011;25829;50.228;18.936;2023-02-28T19:07:31;57.20;;;33.30;;
40116;SDS011;25829;50.228;18.936;2023-02-28T19:10:31;55.43;;;30.60;;
40116;SDS011;25829;50.228;18.936;2023-02-28T19:13:32;46.77;;;26.07;;
40116;SDS011;25829;50.228;18.936;2023-02-28T19:16:33;47.63;;;24.43;;
40116;SDS011;25829;50.228;18.936;2023-02-28T19:19:34;43.37;;;25.90;;
40116;SDS011;25829;50.228;18.936;2023-02-28T19:22:35;40.20;;;24.23;;
40116;SDS011;25829;50.228;18.936;2023-02-28T19:25:39;47.10;;;27.80;;
40116;SDS011;25829;50.228;18.936;2023-02-28T19:28:41;52.73;;;29.60;;
40116;SDS011;25829;50.228;18.936;2023-02-28T19:31:43;55.07;;;29.77;;
40116;SDS011;25829;50.228;18.936;2023-02-28T19:34:44;50.77;;;27.50;;
40116;SDS011;25829;50.228;18.936;2023-02-28T19:37:45;50.97;;;27.87;;
40116;SDS011;25829;50.228;18.936;2023-02-28T19:44:10;36.77;;;21.13;;
40116;SDS011;25829;50.228;18.936;2023-02-28T19:47:11;42.67;;;23.10;;
40116;SDS011;25829;50.228;18.936;2023-02-28T19:50:12;37.13;;;20.13;;
40116;SDS011;25829;50.228;18.936;2023-02-28T19:53:13;54.00;;;25.30;;
40116;SDS011;25829;50.228;18.936;2023-02-28T19:56:17;55.00;;;28.83;;
40116;SDS011;25829;50.228;18.936;2023-02-28T19:59:17;50.33;;;24.33;;
40116;SDS011;25829;50.228;18.936;2023-02-28T20:02:24;46.77;;;23.67;;
40116;SDS011;25829;50.228;18.936;2023-02-28T20:05:25;44.10;;;23.23;;
40116;SDS011;25829;50.228;18.936;2023-02-28T20:08:26;43.20;;;23.00;;
40116;SDS011;25829;50.228;18.936;2023-02-28T20:11:27;36.80;;;20.83;;
40116;SDS011;25829;50.228;18.936;2023-02-28T20:21:15;33.27;;;19.57;;
40116;SDS011;25829;50.228;18.936;2023-02-28T20:24:17;30.80;;;17.33;;
40116;SDS011;25829;50.228;18.936;2023-02-28T20:27:19;31.07;;;18.47;;
40116;SDS011;25829;50.228;18.936;2023-02-28T20:30:20;39.43;;;19.70;;
40116;SDS011;25829;50.228;18.936;2023-02-28T20:33:23;35.53;;;21.77;;
40116;SDS011;25829;50.228;18.936;2023-02-28T20:36:23;42.73;;;23.70;;
40116;SDS011;25829;50.228;18.936;2023-02-28T20:39:24;42.43;;;22.17;;
40116;SDS011;25829;50.228;18.936;2023-02-28T20:42:25;40.37;;;23.87;;
40116;SDS011;25829;50.228;18.936;2023-02-28T20:45:26;57.40;;;31.87;;
40116;SDS011;25829;50.228;18.936;2023-02-28T20:48:27;68.90;;;36.37;;
40116;SDS011;25829;50.228;18.936;2023-02-28T20:51:29;64.60;;;33.27;;
40116;SDS011;25829;50.228;18.936;2023-02-28T20:54:29;53.83;;;32.13;;
40116;SDS011;25829;50.228;18.936;2023-02-28T20:57:30;59.37;;;30.47;;
40116;SDS011;25829;50.228;18.936;2023-02-28T21:00:31;43.23;;;26.47;;
40116;SDS011;25829;50.228;18.936;2023-02-28T21:03:34;49.53;;;26.03;;
40116;SDS011;25829;50.228;18.936;2023-02-28T21:06:45;51.13;;;24.43;;
40116;SDS011;25829;50.228;18.936;2023-02-28T21:09:49;43.23;;;23.30;;
40116;SDS011;25829;50.228;18.936;2023-02-28T21:12:50;55.23;;;29.33;;
40116;SDS011;25829;50.228;18.936;2023-02-28T21:15:53;56.40;;;28.93;;
40116;SDS011;25829;50.228;18.936;2023-02-28T21:18:54;77.57;;;38.47;;
40116;SDS011;25829;50.228;18.936;2023-02-28T21:22:02;79.23;;;37.50;;
40116;SDS011;25829;50.228;18.936;2023-02-28T21:25:03;84.03;;;43.80;;
40116;SDS011;25829;50.228;18.936;2023-02-28T21:28:04;76.93;;;41.83;;
40116;SDS011;25829;50.228;18.936;2023-02-28T21:31:06;56.63;;;32.57;;
40116;SDS011;25829;50.228;18.936;2023-02-28T21:34:09;43.10;;;25.60;;
40116;SDS011;25829;50.228;18.936;2023-02-28T21:37:12;51.10;;;29.60;;
40116;SDS011;25829;50.228;18.936;2023-02-28T21:40:12;57.43;;;31.13;;
40116;SDS011;25829;50.228;18.936;2023-02-28T21:43:13;74.67;;;35.77;;
40116;SDS011;25829;50.228;18.936;2023-02-28T21:46:26;72.07;;;37.63;;
40116;SDS011;25829;50.228;18.936;2023-02-28T21:49:28;83.40;;;40.77;;
40116;SDS011;25829;50.228;18.936;2023-02-28T21:52:29;78.00;;;38.10;;